Time;durP1;ratioP1;P1;durP2;ratioP2;P2;SDS_P1;SDS_P2;PMS_P1;PMS_P2;Temp;Humidity;BMP_temperature;BMP_pressure;BME280_temperature;BME280_humidity;BME280_pressure;Samples;Min_cycle;Max_cycle;Signal;HPM_P1;HPM_P2
2023/03/30 00:00:18;;;;;;;15.95;14.38;;;10.10;99.90;;;;;;5054161;28;20399;-71
2023/03/30 00:02:47;;;;;;;15.88;14.45;;;10.20;99.90;;;;;;5058749;28;20621;-72
2023/03/30 00:05:16;;;;;;;15.57;14.13;;;10.20;99.90;;;;;;5043804;28;20541;-71
2023/03/30 00:07:46;;;;;;;16.58;15.13;;;10.20;99.90;;;;;;5055882;28;20323;-72
2023/03/30 00:10:16;;;;;;;15.82;14.52;;;10.20;99.90;;;;;;5061847;28;20123;-71
2023/03/30 00:12:46;;;;;;;15.90;14.73;;;10.10;99.90;;;;;;5056218;28;20123;-72
2023/03/30 00:15:15;;;;;;;16.17;15.07;;;10.10;99.90;;;;;;5057407;28;20145;-71
2023/03/30 00:17:42;;;;;;;16.88;15.57;;;10.10;99.90;;;;;;5054547;28;20493;-71
2023/03/30 00:20:13;;;;;;;16.13;14.50;;;10.10;99.90;;;;;;5056773;28;20043;-70
2023/03/30 00:22:41;;;;;;;16.17;14.77;;;9.90;99.90;;;;;;5047535;28;20066;-72
2023/03/30 00:25:11;;;;;;;16.63;15.13;;;9.90;99.90;;;;;;5058184;28;21101;-72
2023/03/30 00:27:38;;;;;;;16.13;14.65;;;9.80;99.90;;;;;;5055094;28;20048;-72
2023/03/30 00:30:10;;;;;;;15.13;13.77;;;9.60;99.90;;;;;;5054177;28;20640;-71
2023/03/30 00:32:36;;;;;;;28.08;19.15;;;9.70;99.90;;;;;;5059759;28;20040;-72
2023/03/30 00:35:04;;;;;;;14.63;13.27;;;9.60;99.90;;;;;;5057574;28;20102;-69
2023/03/30 00:37:32;;;;;;;24.38;17.65;;;9.40;99.90;;;;;;5056872;28;20314;-71
2023/03/30 00:39:58;;;;;;;15.65;14.25;;;9.40;99.90;;;;;;5050550;28;20041;-70
2023/03/30 00:42:25;;;;;;;17.67;15.98;;;9.40;99.90;;;;;;5043092;28;20488;-72
2023/03/30 00:45:08;;;;;;;15.50;13.85;;;9.40;99.90;;;;;;5046934;28;20036;-71
2023/03/30 00:47:42;;;;;;;13.48;12.18;;;9.30;99.90;;;;;;5050179;28;20435;-72
2023/03/30 00:50:11;;;;;;;12.48;11.20;;;9.10;99.90;;;;;;5048933;28;20132;-71
2023/03/30 00:52:38;;;;;;;12.40;11.30;;;9.10;99.90;;;;;;5054678;28;20047;-71
2023/03/30 00:55:06;;;;;;;12.07;11.00;;;9.00;99.90;;;;;;5053583;28;20067;-71
2023/03/30 00:57:36;;;;;;;12.63;10.98;;;8.80;99.90;;;;;;5044743;28;20036;-71
2023/03/30 01:00:07;;;;;;;18.85;13.35;;;8.80;99.90;;;;;;5047769;28;20577;-71
2023/03/30 01:02:38;;;;;;;12.15;9.68;;;8.90;99.90;;;;;;5029888;28;20278;-72
2023/03/30 01:05:07;;;;;;;11.85;9.73;;;8.90;99.90;;;;;;5052674;28;20076;-72
2023/03/30 01:07:36;;;;;;;12.68;9.60;;;8.90;99.90;;;;;;5046807;28;20569;-71
2023/03/30 01:10:03;;;;;;;11.85;9.88;;;8.80;99.90;;;;;;5043800;28;20048;-72
2023/03/30 01:12:30;;;;;;;12.00;10.77;;;8.70;99.90;;;;;;5051468;28;20040;-71
2023/03/30 01:14:57;;;;;;;12.18;10.00;;;8.70;99.90;;;;;;5050128;28;20135;-71
2023/03/30 01:17:42;;;;;;;13.13;10.02;;;8.70;99.90;;;;;;5053599;28;20387;-70
2023/03/30 01:20:24;;;;;;;11.18;9.50;;;8.70;99.90;;;;;;5048569;28;20551;-72
2023/03/30 01:23:32;;;;;;;11.55;10.55;;;8.70;99.90;;;;;;5049638;28;20618;-71
2023/03/30 01:26:32;;;;;;;11.32;9.63;;;8.70;99.90;;;;;;5055070;28;20051;-70
2023/03/30 01:29:10;;;;;;;10.68;9.60;;;8.70;99.90;;;;;;5051128;28;20037;-71
2023/03/30 01:32:06;;;;;;;10.50;9.40;;;8.70;99.90;;;;;;5062732;28;20157;-71
2023/03/30 01:34:36;;;;;;;12.13;9.45;;;8.80;99.90;;;;;;5062387;28;20064;-71
2023/03/30 01:37:52;;;;;;;13.07;9.25;;;8.80;99.90;;;;;;5054968;28;20100;-73
2023/03/30 01:40:22;;;;;;;15.75;10.05;;;8.70;99.90;;;;;;5058884;28;20068;-73
2023/03/30 01:43:03;;;;;;;10.90;9.75;;;8.70;99.90;;;;;;5052010;28;20446;-71
2023/03/30 01:45:39;;;;;;;10.70;9.60;;;8.70;99.90;;;;;;5030841;28;20136;-71
2023/03/30 01:48:18;;;;;;;11.20;10.10;;;8.70;99.90;;;;;;5052215;28;20051;-72
2023/03/30 01:50:52;;;;;;;11.20;10.32;;;8.70;99.90;;;;;;5050961;28;20048;-72
2023/03/30 01:53:37;;;;;;;11.32;10.25;;;8.70;99.90;;;;;;5053716;28;20454;-70
2023/03/30 01:56:15;;;;;;;12.63;11.45;;;8.70;99.90;;;;;;5051607;28;20036;-69
2023/03/30 01:59:05;;;;;;;11.43;10.45;;;8.80;99.90;;;;;;5054057;28;20040;-70
2023/03/30 02:01:36;;;;;;;12.38;11.38;;;8.80;99.90;;;;;;5049784;28;20140;-72
2023/03/30 02:04:07;;;;;;;12.88;11.70;;;8.90;99.90;;;;;;5049827;28;20049;-73
2023/03/30 02:06:42;;;;;;;13.57;12.48;;;8.90;99.90;;;;;;5048601;28;20040;-73
2023/03/30 02:09:14;;;;;;;14.90;13.73;;;9.00;99.90;;;;;;5061309;28;20040;-73
2023/03/30 02:11:45;;;;;;;20.85;15.02;;;9.10;99.90;;;;;;5046991;28;20041;-70
2023/03/30 02:14:14;;;;;;;15.40;14.18;;;9.10;99.90;;;;;;5050602;28;20495;-72
2023/03/30 02:16:47;;;;;;;17.50;16.30;;;9.30;99.90;;;;;;5029980;28;20131;-71
2023/03/30 02:19:15;;;;;;;18.27;16.55;;;9.50;99.90;;;;;;5049383;28;20075;-73
2023/03/30 02:21:43;;;;;;;19.35;17.63;;;9.80;99.90;;;;;;5053924;28;20040;-70
2023/03/30 02:24:18;;;;;;;19.27;17.77;;;10.10;99.90;;;;;;5049273;28;20041;-71
2023/03/30 02:26:49;;;;;;;19.65;18.25;;;10.20;99.90;;;;;;5061113;28;20044;-70
2023/03/30 02:29:17;;;;;;;19.58;18.40;;;10.40;99.90;;;;;;5048907;28;20037;-71
2023/03/30 02:31:46;;;;;;;20.45;18.73;;;10.60;99.90;;;;;;5051200;28;20124;-69
2023/03/30 02:34:28;;;;;;;21.25;19.40;;;10.80;99.90;;;;;;5048680;28;20059;-71
2023/03/30 02:37:31;;;;;;;20.30;19.00;;;10.90;99.90;;;;;;5050620;28;20199;-71
2023/03/30 02:40:25;;;;;;;21.08;19.33;;;10.90;99.90;;;;;;5061960;28;20052;-71
2023/03/30 02:43:18;;;;;;;20.33;19.02;;;11.00;99.90;;;;;;5057025;28;20036;-70
2023/03/30 02:46:03;;;;;;;22.45;20.38;;;11.00;99.90;;;;;;5061866;28;20052;-70
2023/03/30 02:48:40;;;;;;;21.13;19.42;;;11.10;99.90;;;;;;5063141;28;20055;-70
2023/03/30 02:51:07;;;;;;;21.08;19.10;;;11.20;99.90;;;;;;5040044;28;20040;-70
2023/03/30 02:54:16;;;;;;;19.85;18.50;;;11.30;99.90;;;;;;5053785;28;20405;-71
2023/03/30 02:57:10;;;;;;;20.48;18.98;;;11.40;99.90;;;;;;5051983;28;20075;-70
2023/03/30 02:59:43;;;;;;;20.73;19.00;;;11.50;99.90;;;;;;5068960;28;20410;-70
2023/03/30 03:02:18;;;;;;;20.42;18.67;;;11.60;99.90;;;;;;5055120;28;20518;-70
2023/03/30 03:04:51;;;;;;;20.58;19.38;;;11.80;99.90;;;;;;5067376;28;20487;-70
2023/03/30 03:07:31;;;;;;;19.85;18.70;;;12.00;99.90;;;;;;5051172;28;20142;-70
2023/03/30 03:09:58;;;;;;;21.60;19.55;;;12.20;99.90;;;;;;5038578;28;20105;-71
2023/03/30 03:12:27;;;;;;;20.67;19.13;;;12.40;99.90;;;;;;5058526;28;20043;-70
2023/03/30 03:14:54;;;;;;;21.13;19.33;;;12.40;99.90;;;;;;5062442;28;20059;-71
2023/03/30 03:17:21;;;;;;;21.35;19.38;;;12.60;99.90;;;;;;5066564;28;21105;-71
2023/03/30 03:19:48;;;;;;;21.20;19.27;;;12.60;99.90;;;;;;5066324;28;20139;-70
2023/03/30 03:22:17;;;;;;;20.55;19.00;;;12.50;99.90;;;;;;5054395;28;20284;-70
2023/03/30 03:24:44;;;;;;;20.13;18.60;;;12.40;99.90;;;;;;5055389;28;20685;-70
2023/03/30 03:27:41;;;;;;;21.30;19.35;;;12.40;99.90;;;;;;5054591;28;20048;-70
2023/03/30 03:30:16;;;;;;;20.58;19.13;;;12.40;99.90;;;;;;5042511;28;20503;-71
2023/03/30 03:32:49;;;;;;;20.45;18.77;;;12.40;99.90;;;;;;5059315;28;20036;-70
2023/03/30 03:35:16;;;;;;;20.30;18.70;;;12.40;99.90;;;;;;5051709;28;20045;-70
2023/03/30 03:37:44;;;;;;;20.92;19.17;;;12.40;99.90;;;;;;5051331;28;20036;-69
2023/03/30 03:40:10;;;;;;;20.95;19.15;;;12.40;99.90;;;;;;5053242;28;20049;-71
2023/03/30 03:42:38;;;;;;;20.08;18.65;;;12.40;99.90;;;;;;5067956;28;20050;-71
2023/03/30 03:45:10;;;;;;;20.30;18.77;;;12.40;99.90;;;;;;5063453;28;20409;-70
2023/03/30 03:47:50;;;;;;;20.50;19.13;;;12.50;99.90;;;;;;5067108;28;20051;-71
2023/03/30 03:50:22;;;;;;;20.55;19.00;;;12.50;99.90;;;;;;5065361;28;20440;-71
2023/03/30 03:52:49;;;;;;;20.48;18.88;;;12.50;99.90;;;;;;5063762;28;20250;-71
2023/03/30 03:55:16;;;;;;;21.90;19.75;;;12.50;99.90;;;;;;5059815;28;20093;-70
2023/03/30 03:57:43;;;;;;;21.88;19.98;;;12.50;99.90;;;;;;5068664;28;20438;-72
2023/03/30 04:00:17;;;;;;;20.73;19.17;;;12.50;99.90;;;;;;5063193;28;20036;-71
2023/03/30 04:02:48;;;;;;;21.35;19.70;;;12.60;99.90;;;;;;5066265;28;20043;-70
2023/03/30 04:05:15;;;;;;;20.90;19.00;;;12.60;99.90;;;;;;5067028;28;20951;-72
2023/03/30 04:07:45;;;;;;;20.83;19.05;;;12.70;99.90;;;;;;5069926;28;20054;-71
2023/03/30 04:10:13;;;;;;;22.33;19.98;;;12.80;99.90;;;;;;5066001;28;20376;-71
2023/03/30 04:12:44;;;;;;;20.88;19.00;;;12.80;99.90;;;;;;5070374;28;20033;-70
2023/03/30 04:15:26;;;;;;;20.58;18.77;;;12.80;99.90;;;;;;5066437;28;20291;-71
2023/03/30 04:18:32;;;;;;;20.65;18.98;;;12.80;99.90;;;;;;5006891;28;20223;-71
2023/03/30 04:21:11;;;;;;;24.20;19.20;;;12.70;99.90;;;;;;5059137;28;20559;-70
2023/03/30 04:24:04;;;;;;;20.92;19.15;;;12.80;99.90;;;;;;5042627;28;20040;-71
2023/03/30 04:27:08;;;;;;;20.67;18.80;;;12.80;99.90;;;;;;5066743;28;21150;-71
2023/03/30 04:29:43;;;;;;;20.92;19.35;;;12.90;99.90;;;;;;5064666;28;20044;-70
2023/03/30 04:32:40;;;;;;;20.50;18.92;;;13.00;99.90;;;;;;5043030;28;20068;-71
2023/03/30 04:35:24;;;;;;;20.45;18.80;;;13.00;99.90;;;;;;5069401;28;20036;-71
2023/03/30 04:38:09;;;;;;;;;;;13.00;99.90;;;;;;5067313;28;20052;-71
2023/03/30 04:40:55;;;;;;;20.60;18.97;;;12.90;99.90;;;;;;5055732;28;19970;-71
2023/03/30 04:43:43;;;;;;;26.90;19.67;;;12.90;99.90;;;;;;5056091;28;20036;-71
2023/03/30 04:46:27;;;;;;;20.55;18.98;;;12.90;99.90;;;;;;5056956;28;20036;-71
2023/03/30 04:49:04;;;;;;;20.55;18.80;;;12.90;99.90;;;;;;5060015;28;20052;-72
2023/03/30 04:52:09;;;;;;;21.00;19.10;;;13.00;99.90;;;;;;5061960;28;20078;-73
2023/03/30 04:54:54;;;;;;;20.80;19.17;;;13.10;99.90;;;;;;5060908;28;20046;-70
2023/03/30 04:57:53;;;;;;;21.25;19.55;;;13.10;99.90;;;;;;5063911;28;20109;-70
2023/03/30 05:00:38;;;;;;;21.63;19.92;;;13.20;99.90;;;;;;5062985;28;20047;-70
2023/03/30 05:03:28;;;;;;;20.88;19.30;;;13.10;99.90;;;;;;5058701;28;20120;-70
2023/03/30 05:06:05;;;;;;;21.52;19.75;;;13.00;99.90;;;;;;5049369;28;20044;-71
2023/03/30 05:08:44;;;;;;;21.33;19.70;;;12.80;99.90;;;;;;5067478;28;20040;-71
2023/03/30 05:11:20;;;;;;;21.23;19.38;;;12.60;99.90;;;;;;5064323;28;20927;-70
2023/03/30 05:13:56;;;;;;;22.20;20.13;;;12.70;99.90;;;;;;5060862;28;20045;-72
2023/03/30 05:16:41;;;;;;;;;;;13.00;99.90;;;;;;5054456;28;20182;-72
2023/03/30 05:19:28;;;;;;;20.83;19.23;;;13.50;99.90;;;;;;5057299;28;19924;-71
2023/03/30 05:22:10;;;;;;;28.13;25.85;;;13.70;99.90;;;;;;5058111;28;20055;-71
2023/03/30 05:24:55;;;;;;;27.40;25.37;;;13.70;99.90;;;;;;5068891;28;20131;-72
2023/03/30 05:27:42;;;;;;;26.17;24.05;;;13.80;99.90;;;;;;5046342;28;20453;-71
2023/03/30 05:30:39;;;;;;;25.27;23.48;;;13.80;99.90;;;;;;5064338;28;20243;-71
2023/03/30 05:33:24;;;;;;;;;;;13.80;99.90;;;;;;5068426;22;20072;-74
2023/03/30 05:36:12;;;;;;;25.50;23.35;;;13.70;99.90;;;;;;5021522;28;19940;-74
2023/03/30 05:39:08;;;;;;;26.60;24.33;;;13.80;99.90;;;;;;5022908;28;20101;-74
2023/03/30 05:41:40;;;;;;;29.20;26.98;;;13.70;99.90;;;;;;5047855;28;20048;-74
2023/03/30 05:44:17;;;;;;;26.70;24.90;;;13.80;99.90;;;;;;5035916;28;20047;-74
2023/03/30 05:47:15;;;;;;;26.10;24.20;;;13.80;99.90;;;;;;5043823;28;20308;-74
2023/03/30 05:50:02;;;;;;;26.23;24.00;;;13.80;99.90;;;;;;5012398;28;20103;-74
2023/03/30 05:52:46;;;;;;;29.83;26.92;;;13.80;99.90;;;;;;5043185;28;20044;-74
2023/03/30 05:55:32;;;;;;;28.27;25.67;;;13.80;99.90;;;;;;5040213;28;20052;-74
2023/03/30 05:58:27;;;;;;;29.70;27.00;;;13.80;99.90;;;;;;5015791;28;20049;-74
2023/03/30 06:01:14;;;;;;;26.92;24.85;;;13.80;99.90;;;;;;5034909;28;20158;-74
2023/03/30 06:03:43;;;;;;;28.35;25.70;;;13.80;99.90;;;;;;5041429;28;20570;-74
2023/03/30 06:06:11;;;;;;;29.17;26.60;;;13.80;99.90;;;;;;5040052;28;20780;-74
2023/03/30 06:08:40;;;;;;;28.83;25.90;;;13.70;99.90;;;;;;5041632;28;20037;-74
2023/03/30 06:11:10;;;;;;;26.02;24.23;;;13.70;99.90;;;;;;5034602;28;21258;-74
2023/03/30 06:13:54;;;;;;;26.17;24.33;;;13.50;99.90;;;;;;5045984;28;20537;-73
2023/03/30 06:16:20;;;;;;;27.05;24.73;;;13.40;99.90;;;;;;5046251;28;20098;-74
2023/03/30 06:18:47;;;;;;;29.05;26.50;;;13.20;99.90;;;;;;5039027;28;20059;-75
2023/03/30 06:21:14;;;;;;;28.38;26.17;;;13.10;99.90;;;;;;5040783;28;20048;-74
2023/03/30 06:23:52;;;;;;;28.65;26.20;;;13.00;99.90;;;;;;5040533;28;20498;-74
2023/03/30 06:26:22;;;;;;;27.33;25.42;;;13.00;99.90;;;;;;5049608;28;20040;-74
2023/03/30 06:28:49;;;;;;;28.52;26.13;;;13.00;99.90;;;;;;5049974;28;20097;-74
2023/03/30 06:31:16;;;;;;;28.23;25.88;;;12.90;99.90;;;;;;5027815;28;20040;-75
2023/03/30 06:33:46;;;;;;;27.58;25.65;;;12.90;99.90;;;;;;5053943;28;20040;-74
2023/03/30 06:36:13;;;;;;;28.05;25.80;;;12.80;99.90;;;;;;5049367;28;20197;-72
2023/03/30 06:38:45;;;;;;;27.90;25.75;;;12.80;99.90;;;;;;5052855;28;20056;-72
2023/03/30 06:41:14;;;;;;;27.35;25.15;;;12.70;99.90;;;;;;5045181;28;20057;-72
2023/03/30 06:43:43;;;;;;;25.85;23.85;;;12.70;99.90;;;;;;5035772;28;20036;-75
2023/03/30 06:46:14;;;;;;;25.58;23.88;;;12.70;99.90;;;;;;5029493;28;20124;-72
2023/03/30 06:48:47;;;;;;;26.45;24.63;;;12.70;99.90;;;;;;5047370;28;20414;-75
2023/03/30 06:51:35;;;;;;;26.75;24.35;;;12.70;99.90;;;;;;5040696;28;20048;-73
2023/03/30 06:54:03;;;;;;;27.52;25.25;;;12.80;99.90;;;;;;5031826;28;20048;-73
2023/03/30 06:56:30;;;;;;;27.95;25.52;;;12.80;99.90;;;;;;5054374;28;20143;-73
2023/03/30 06:59:04;;;;;;;26.40;24.05;;;12.90;99.90;;;;;;5027370;28;20499;-75
2023/03/30 07:01:36;;;;;;;27.58;24.90;;;13.00;99.90;;;;;;5053202;28;20047;-71
2023/03/30 07:04:24;;;;;;;26.77;24.80;;;12.90;99.90;;;;;;5048095;28;20044;-71
2023/03/30 07:07:07;;;;;;;27.55;25.42;;;13.00;99.90;;;;;;5045548;28;20106;-70
2023/03/30 07:09:34;;;;;;;28.83;26.45;;;13.10;99.90;;;;;;5046217;28;20080;-71
2023/03/30 07:12:01;;;;;;;29.00;26.73;;;13.10;99.90;;;;;;5048223;28;20152;-71
2023/03/30 07:14:28;;;;;;;29.05;27.00;;;13.10;99.90;;;;;;5039584;28;20056;-71
2023/03/30 07:16:56;;;;;;;28.52;26.48;;;13.20;99.90;;;;;;5051715;28;20564;-71
2023/03/30 07:19:23;;;;;;;29.33;26.92;;;13.20;99.90;;;;;;5026495;28;20041;-70
2023/03/30 07:21:49;;;;;;;27.20;25.05;;;13.30;99.90;;;;;;5029441;28;20082;-71
2023/03/30 07:24:19;;;;;;;26.33;24.25;;;13.40;99.90;;;;;;5032416;28;20045;-71
2023/03/30 07:26:46;;;;;;;26.88;25.05;;;13.60;99.90;;;;;;5048899;28;20064;-71
2023/03/30 07:29:14;;;;;;;28.90;26.75;;;13.80;99.90;;;;;;5041481;28;20459;-71
2023/03/30 07:31:43;;;;;;;28.58;26.52;;;13.80;99.90;;;;;;5053769;28;20425;-73
2023/03/30 07:34:12;;;;;;;25.88;24.08;;;13.90;99.90;;;;;;5049548;28;20414;-71
2023/03/30 07:36:46;;;;;;;25.63;23.90;;;13.90;99.90;;;;;;5054796;28;20122;-71
2023/03/30 07:39:13;;;;;;;27.00;25.05;;;13.90;99.90;;;;;;5021440;28;20091;-73
2023/03/30 07:41:42;;;;;;;28.35;26.30;;;13.90;99.90;;;;;;5049697;28;20051;-72
2023/03/30 07:44:09;;;;;;;25.10;23.35;;;13.90;99.90;;;;;;5040400;28;20488;-71
2023/03/30 07:46:36;;;;;;;25.13;23.33;;;14.00;99.90;;;;;;5050304;28;20098;-71
2023/03/30 07:49:02;;;;;;;25.45;23.65;;;13.90;99.90;;;;;;5036998;28;20361;-71
2023/03/30 07:51:30;;;;;;;25.48;23.58;;;13.90;99.90;;;;;;5049038;28;20044;-71
2023/03/30 07:54:12;;;;;;;26.48;24.35;;;13.90;99.90;;;;;;5042971;28;20604;-72
2023/03/30 07:56:53;;;;;;;26.92;24.60;;;13.90;99.90;;;;;;5054136;28;20049;-72
2023/03/30 07:59:22;;;;;;;26.00;24.20;;;13.90;99.90;;;;;;5038786;28;20118;-72
2023/03/30 08:01:53;;;;;;;29.80;27.70;;;14.00;99.90;;;;;;5054572;28;20113;-72
2023/03/30 08:04:40;;;;;;;29.13;27.17;;;14.00;99.90;;;;;;5059986;28;20510;-72
2023/03/30 08:07:08;;;;;;;28.13;25.60;;;14.00;99.90;;;;;;5052366;28;20577;-72
2023/03/30 08:09:36;;;;;;;25.92;23.45;;;14.20;99.90;;;;;;5048386;28;20037;-73
2023/03/30 08:12:03;;;;;;;26.90;24.45;;;14.40;99.90;;;;;;5037448;28;20537;-73
2023/03/30 08:14:30;;;;;;;27.25;25.00;;;14.70;99.90;;;;;;5039254;28;20045;-72
2023/03/30 08:16:56;;;;;;;30.00;27.83;;;15.00;99.90;;;;;;5046779;28;20133;-72
2023/03/30 08:19:24;;;;;;;26.60;24.35;;;15.20;99.90;;;;;;5039152;28;20062;-72
2023/03/30 08:21:51;;;;;;;26.45;24.52;;;15.40;99.90;;;;;;5049135;28;20072;-72
2023/03/30 08:24:17;;;;;;;29.77;27.38;;;15.50;99.90;;;;;;5044708;28;20098;-72
2023/03/30 08:26:44;;;;;;;31.95;29.10;;;15.60;99.90;;;;;;5041244;28;20030;-72
2023/03/30 08:29:11;;;;;;;29.83;27.15;;;15.60;99.90;;;;;;5038175;28;20411;-72
2023/03/30 08:31:38;;;;;;;29.17;26.70;;;15.50;99.90;;;;;;5039941;28;20040;-72
2023/03/30 08:34:06;;;;;;;28.23;25.88;;;15.30;99.90;;;;;;5018007;28;20037;-72
2023/03/30 08:36:33;;;;;;;28.67;25.10;;;15.30;99.90;;;;;;5044442;28;20293;-72
2023/03/30 08:39:01;;;;;;;27.55;25.05;;;15.20;99.90;;;;;;5022226;28;20048;-72
2023/03/30 08:41:28;;;;;;;30.63;28.13;;;15.20;99.90;;;;;;5037790;28;20044;-72
2023/03/30 08:43:59;;;;;;;28.10;25.77;;;15.20;99.90;;;;;;5048564;28;20068;-72
2023/03/30 08:46:28;;;;;;;28.20;25.90;;;15.20;99.90;;;;;;5043558;28;20060;-72
2023/03/30 08:48:59;;;;;;;28.58;26.17;;;15.30;99.90;;;;;;5048657;28;20126;-72
2023/03/30 08:51:32;;;;;;;28.38;25.63;;;15.30;99.90;;;;;;5042898;28;20037;-72
2023/03/30 08:54:08;;;;;;;27.75;25.48;;;15.10;99.90;;;;;;5045751;28;20064;-72
2023/03/30 08:56:40;;;;;;;28.73;26.08;;;15.10;99.90;;;;;;5050387;28;20051;-72
2023/03/30 08:59:19;;;;;;;27.95;25.70;;;15.00;99.90;;;;;;5037062;28;20052;-72
2023/03/30 09:01:46;;;;;;;27.48;25.38;;;14.90;99.90;;;;;;5047400;28;20047;-72
2023/03/30 09:04:28;;;;;;;26.38;24.52;;;15.00;99.90;;;;;;5047815;28;20519;-72
2023/03/30 09:07:11;;;;;;;26.77;24.45;;;15.10;99.90;;;;;;5033619;28;20125;-72
2023/03/30 09:09:44;;;;;;;26.90;24.77;;;15.20;99.90;;;;;;5028501;28;20079;-71
2023/03/30 09:12:42;;;;;;;28.20;25.60;;;15.20;99.90;;;;;;5038336;28;20458;-71
2023/03/30 09:15:28;;;;;;;26.30;24.50;;;15.10;99.90;;;;;;5043494;28;20049;-74
2023/03/30 09:18:16;;;;;;;26.48;24.77;;;15.00;99.90;;;;;;5033557;28;20041;-74
2023/03/30 09:20:43;;;;;;;;;;;15.10;99.90;;;;;;5025977;28;20458;-74
2023/03/30 09:23:14;;;;;;;26.98;24.67;;;14.90;99.90;;;;;;5046291;28;20214;-73
2023/03/30 09:25:57;;;;;;;25.90;23.88;;;14.80;99.90;;;;;;5047221;28;20269;-74
2023/03/30 09:28:39;;;;;;;26.42;24.70;;;14.80;99.90;;;;;;5040690;28;20226;-74
2023/03/30 09:31:10;;;;;;;26.75;24.73;;;14.80;99.90;;;;;;5044000;28;20044;-71
2023/03/30 09:33:45;;;;;;;25.10;23.42;;;14.80;99.90;;;;;;5048304;28;20399;-74
2023/03/30 09:36:13;;;;;;;;;;;14.50;99.90;;;;;;5044440;28;20036;-74
2023/03/30 09:38:42;;;;;;;26.98;24.63;;;14.40;99.90;;;;;;5050197;28;19928;-74
2023/03/30 09:41:42;;;;;;;26.40;24.85;;;14.30;99.90;;;;;;5041320;28;20045;-74
2023/03/30 09:44:21;;;;;;;26.17;24.35;;;14.20;99.90;;;;;;5041068;28;20052;-73
2023/03/30 09:46:51;;;;;;;25.88;23.90;;;14.10;99.90;;;;;;5036024;28;20063;-72
2023/03/30 09:49:17;;;;;;;26.02;24.10;;;14.10;99.90;;;;;;5036381;28;20028;-74
2023/03/30 09:52:06;;;;;;;25.35;23.63;;;14.10;99.90;;;;;;5045687;28;20041;-72
2023/03/30 09:54:39;;;;;;;25.70;23.48;;;14.10;99.90;;;;;;5050523;28;20399;-72
2023/03/30 09:57:30;;;;;;;24.45;22.92;;;14.10;99.90;;;;;;5043273;28;20112;-72
2023/03/30 10:00:00;;;;;;;26.27;24.38;;;14.20;99.90;;;;;;5043523;28;20048;-72
2023/03/30 10:02:30;;;;;;;24.85;23.25;;;14.30;99.90;;;;;;5044378;28;20045;-72
2023/03/30 10:05:01;;;;;;;26.45;24.60;;;14.20;99.90;;;;;;5043070;28;20052;-72
2023/03/30 10:07:32;;;;;;;25.88;24.20;;;14.00;99.90;;;;;;5039167;28;20114;-72
2023/03/30 10:10:02;;;;;;;25.65;23.60;;;14.00;99.90;;;;;;5046672;28;20052;-72
2023/03/30 10:12:29;;;;;;;25.65;23.80;;;13.80;99.90;;;;;;5039272;28;21886;-75
2023/03/30 10:15:11;;;;;;;24.27;22.77;;;13.60;99.90;;;;;;5049007;28;20071;-74
2023/03/30 10:17:40;;;;;;;17.23;15.65;;;13.10;99.90;;;;;;5042161;28;20046;-76
2023/03/30 10:20:37;;;;;;;12.77;11.00;;;12.30;99.90;;;;;;5040698;28;20064;-74
2023/03/30 10:23:14;;;;;;;11.50;10.50;;;11.70;99.90;;;;;;5039989;28;20113;-73
2023/03/30 10:25:42;;;;;;;8.20;7.70;;;11.40;99.90;;;;;;5045712;28;20090;-72
2023/03/30 10:28:25;;;;;;;10.02;9.23;;;11.30;99.90;;;;;;5046788;28;20055;-73
2023/03/30 10:31:15;;;;;;;9.75;8.88;;;11.10;99.90;;;;;;5043180;28;20051;-73
2023/03/30 10:33:43;;;;;;;10.02;9.02;;;11.00;99.90;;;;;;5033041;28;20510;-73
2023/03/30 10:36:13;;;;;;;9.57;8.57;;;11.00;99.90;;;;;;5044767;28;20059;-73
2023/03/30 10:38:42;;;;;;;8.98;8.20;;;11.00;99.90;;;;;;5035227;28;20048;-74
2023/03/30 10:41:21;;;;;;;10.88;8.57;;;11.00;99.90;;;;;;5033105;28;20079;-73
2023/03/30 10:43:49;;;;;;;9.52;8.75;;;11.10;99.90;;;;;;5043032;28;20045;-72
2023/03/30 10:46:21;;;;;;;13.93;9.43;;;11.30;99.90;;;;;;5030282;28;20045;-75
2023/03/30 10:49:18;;;;;;;11.60;11.02;;;11.50;99.90;;;;;;5042361;28;20052;-74
2023/03/30 10:52:04;;;;;;;15.88;14.27;;;11.60;99.90;;;;;;5028099;28;20037;-74
2023/03/30 10:54:41;;;;;;;14.25;13.18;;;11.70;99.90;;;;;;5045505;28;20057;-74
2023/03/30 10:57:20;;;;;;;16.38;14.80;;;11.80;99.90;;;;;;5042284;28;20036;-71
2023/03/30 11:00:11;;;;;;;19.05;16.98;;;12.00;99.90;;;;;;5043414;28;20036;-74
2023/03/30 11:02:44;;;;;;;18.67;17.08;;;12.40;99.90;;;;;;5042952;28;20040;-73
2023/03/30 11:05:18;;;;;;;18.75;17.15;;;12.80;99.90;;;;;;5041054;28;20053;-71
2023/03/30 11:07:47;;;;;;;23.58;21.85;;;13.40;99.90;;;;;;5033331;28;20041;-71
2023/03/30 11:10:20;;;;;;;24.33;22.80;;;13.70;99.90;;;;;;5043279;28;20126;-70
2023/03/30 11:13:13;;;;;;;27.27;25.20;;;13.90;99.90;;;;;;5049727;28;20040;-71
2023/03/30 11:15:44;;;;;;;27.10;24.98;;;14.10;99.90;;;;;;5038150;28;20040;-70
2023/03/30 11:18:27;;;;;;;28.52;26.30;;;14.10;99.90;;;;;;5045891;28;20301;-73
2023/03/30 11:21:03;;;;;;;30.73;28.35;;;14.00;99.90;;;;;;5043292;28;20529;-74
2023/03/30 11:23:42;;;;;;;31.10;28.95;;;14.00;99.90;;;;;;5040716;28;20139;-72
2023/03/30 11:26:19;;;;;;;30.45;28.10;;;13.90;99.90;;;;;;5051717;28;20083;-72
2023/03/30 11:29:07;;;;;;;34.28;31.00;;;13.70;99.90;;;;;;5044742;28;20044;-72
2023/03/30 11:31:48;;;;;;;28.90;26.52;;;13.50;99.90;;;;;;5050475;28;20808;-71
2023/03/30 11:35:08;;;;;;;29.20;27.50;;;13.30;99.90;;;;;;5045982;28;20065;-72
2023/03/30 11:37:47;;;;;;;28.83;27.35;;;12.90;99.90;;;;;;4963645;28;20151;-73
2023/03/30 11:40:20;;;;;;;29.20;27.67;;;12.30;99.90;;;;;;5045191;28;20126;-73
2023/03/30 11:42:48;;;;;;;28.90;27.08;;;12.10;99.90;;;;;;5030011;28;20531;-72
2023/03/30 11:45:30;;;;;;;25.85;24.05;;;12.20;99.90;;;;;;5046045;28;20045;-74
2023/03/30 11:48:34;;;;;;;23.98;22.23;;;12.20;99.90;;;;;;5033415;28;20136;-73
2023/03/30 11:51:10;;;;;;;23.35;22.00;;;12.20;99.90;;;;;;5019732;28;20040;-74
2023/03/30 11:54:05;;;;;;;25.67;23.67;;;12.30;99.90;;;;;;5045436;28;20072;-73
2023/03/30 11:57:19;;;;;;;25.55;23.92;;;12.40;99.90;;;;;;5047428;28;20040;-75
2023/03/30 12:00:07;;;;;;;28.17;26.15;;;12.60;99.90;;;;;;5008349;28;20148;-73
2023/03/30 12:02:49;;;;;;;25.35;23.85;;;12.60;99.90;;;;;;5036218;28;20782;-72
2023/03/30 12:05:26;;;;;;;26.42;24.83;;;12.80;99.90;;;;;;5037990;28;20044;-73
2023/03/30 12:08:11;;;;;;;27.00;25.08;;;12.80;99.90;;;;;;5045929;28;20050;-73
2023/03/30 12:10:40;;;;;;;28.60;26.60;;;12.80;99.90;;;;;;5045254;28;20051;-72
2023/03/30 12:13:16;;;;;;;27.30;25.05;;;12.80;99.90;;;;;;5046885;28;20052;-72
2023/03/30 12:16:08;;;;;;;30.45;28.70;;;12.90;99.90;;;;;;5047415;28;20483;-72
2023/03/30 12:19:05;;;;;;;31.17;29.10;;;13.40;99.90;;;;;;5044393;28;20430;-72
2023/03/30 12:21:48;;;;;;;27.98;25.70;;;13.90;99.90;;;;;;5041361;28;20052;-72
2023/03/30 12:24:49;;;;;;;26.13;24.38;;;14.10;99.90;;;;;;5046090;28;20131;-73
2023/03/30 12:27:16;;;;;;;27.77;26.08;;;14.10;99.90;;;;;;5047931;28;20139;-73
2023/03/30 12:29:48;;;;;;;28.17;26.33;;;14.10;99.90;;;;;;5035962;28;20033;-73
2023/03/30 12:32:24;;;;;;;27.33;25.50;;;14.20;99.90;;;;;;5044898;28;20037;-72
2023/03/30 12:34:55;;;;;;;28.77;26.77;;;13.90;99.90;;;;;;5046272;28;20064;-73
2023/03/30 12:37:27;;;;;;;27.77;25.70;;;13.80;99.90;;;;;;5047956;28;20079;-73
2023/03/30 12:40:11;;;;;;;28.60;26.45;;;13.90;99.90;;;;;;5043050;28;20033;-72
2023/03/30 12:42:45;;;;;;;28.42;26.00;;;14.20;99.90;;;;;;5042533;28;20087;-73
2023/03/30 12:45:31;;;;;;;27.27;24.88;;;14.10;99.90;;;;;;5047730;28;20772;-72
2023/03/30 12:48:27;;;;;;;27.55;25.10;;;14.10;99.90;;;;;;5046363;28;20054;-72
2023/03/30 12:51:15;;;;;;;30.52;28.08;;;14.00;99.90;;;;;;5040304;28;20104;-73
2023/03/30 12:54:07;;;;;;;33.75;30.60;;;14.00;99.90;;;;;;5040458;28;20338;-72
2023/03/30 12:56:54;;;;;;;31.58;28.88;;;14.10;99.90;;;;;;5046450;28;20047;-73
2023/03/30 12:59:52;;;;;;;29.25;26.77;;;14.30;99.90;;;;;;5044805;28;20056;-71
2023/03/30 13:02:37;;;;;;;31.85;29.77;;;14.20;99.90;;;;;;5042429;28;20266;-70
2023/03/30 13:05:30;;;;;;;30.00;27.42;;;14.10;99.90;;;;;;5049937;28;20852;-72
2023/03/30 13:08:03;;;;;;;30.67;28.42;;;14.00;99.90;;;;;;5047326;28;20192;-71
2023/03/30 13:10:30;;;;;;;31.00;28.85;;;13.90;99.90;;;;;;5044544;28;20053;-72
2023/03/30 13:13:00;;;;;;;31.38;29.00;;;14.00;99.90;;;;;;5052739;28;20049;-74
2023/03/30 13:15:48;;;;;;;32.22;29.25;;;13.80;99.90;;;;;;5032820;28;20132;-73
2023/03/30 13:18:17;;;;;;;33.28;29.92;;;13.70;99.90;;;;;;5033656;28;20037;-71